Aérodrome :
LOGIN :

S'inscrire | Disclaimer

   EN    FR    IT 

 










Légende :    VFR   VFR Marginal   IFR   IFR Intensif   IFR Très Intensif
Visi : 
Plafond : 
>= 8 km
>= 3000ft
5 à 8 km
1000 à 3000 ft
1500m à 5 km
500 à 1000 ft
800 à 1500m
200 à 500 ft
< 800m
< 200 ft
Symboles :   Orages  Brouillard  Fortes neiges  Fortes précipitations  Vent > 20 kt
SIGMETs :   Divers  Orages  Givrage  Turbulence  Onde Orograph.  Cendres Volcan.






- Altitude de l'aérodrome : 416 ft
- Code IATA : OVD


LEAS - Asturias

DERNIER METAR :
  • 120130Z AUTO 24011KT 9999 SCT067 09/07 Q1019

METARs EXPIRÉS :
  • 120100Z AUTO 24009KT 9999 SCT048 BKN056 OVC065 09/07 Q1020
  • 120030Z AUTO 24007KT 9999 SCT031 BKN038 BKN045 09/07 Q1020
  • 120000Z AUTO 25008KT 210V280 9999 FEW031 SCT038 BKN047 09/07 Q1020
  • 112330Z AUTO 24009KT 9000 -RA FEW033 SCT046 BKN058 09/07 Q1020
  • 112300Z AUTO 24009KT 9999 FEW035 SCT050 BKN065 09/07 Q1020

TAF TAF LEAS
Valide du 11 à 21h jusqu'au 12 à 21h UTC


112000Z 1121/1221 24009KT 9999 SCT020 BKN030 TX13/1213Z TN09/1203Z
TEMPO 1121/1221 3000 RA BKN010 BKN014
TEMPO 1215/1221 1500 +RA BKN002 BKN005
TEMPO 1215/1221 12010KT



MET'MAP, la Météo Aéronautique d'un coup d'oeil ! - Copyright ORBIFLY Décembre 2007 - Disclaimer

ORBIFLY MET'MAP TEAM :

Programmation & Développement : Alexandra Zaïnal
Conception & Développement : Baudouin d'Aumeries
Co-Programmation & Développement : Marc-Olivier Méhu
Soutien technique & logistique : Manuel Goepfert

Contact : metmap@orbifly.com




SOURCES & CREDITS :

   NOAA